sensor_id;sensor_type;location;lat;lon;timestamp;P1;durP1;ratioP1;P2;durP2;ratioP2
14923;SDS011;7554;43.600;1.480;2023-03-01T00:01:00;9.40;;;5.63;;
14923;SDS011;7554;43.600;1.480;2023-03-01T00:03:28;11.20;;;6.63;;
14923;SDS011;7554;43.600;1.480;2023-03-01T00:05:57;11.67;;;7.50;;
14923;SDS011;7554;43.600;1.480;2023-03-01T00:08:24;12.57;;;8.00;;
14923;SDS011;7554;43.600;1.480;2023-03-01T00:10:59;14.77;;;8.97;;
14923;SDS011;7554;43.600;1.480;2023-03-01T00:13:27;14.90;;;8.67;;
14923;SDS011;7554;43.600;1.480;2023-03-01T00:15:55;13.60;;;8.53;;
14923;SDS011;7554;43.600;1.480;2023-03-01T00:18:22;10.77;;;7.23;;
14923;SDS011;7554;43.600;1.480;2023-03-01T00:20:50;12.67;;;8.07;;
14923;SDS011;7554;43.600;1.480;2023-03-01T00:23:19;17.10;;;9.60;;
14923;SDS011;7554;43.600;1.480;2023-03-01T00:25:47;18.93;;;8.90;;
14923;SDS011;7554;43.600;1.480;2023-03-01T00:28:14;15.30;;;8.10;;
14923;SDS011;7554;43.600;1.480;2023-03-01T00:30:42;12.90;;;8.30;;
14923;SDS011;7554;43.600;1.480;2023-03-01T00:33:09;11.13;;;7.07;;
14923;SDS011;7554;43.600;1.480;2023-03-01T00:35:37;10.83;;;7.47;;
14923;SDS011;7554;43.600;1.480;2023-03-01T00:38:04;11.43;;;6.97;;
14923;SDS011;7554;43.600;1.480;2023-03-01T00:40:33;9.93;;;6.43;;
14923;SDS011;7554;43.600;1.480;2023-03-01T00:43:02;11.60;;;6.17;;
14923;SDS011;7554;43.600;1.480;2023-03-01T00:45:30;9.17;;;6.27;;
14923;SDS011;7554;43.600;1.480;2023-03-01T00:47:57;9.13;;;6.10;;
14923;SDS011;7554;43.600;1.480;2023-03-01T00:50:25;11.50;;;6.50;;
14923;SDS011;7554;43.600;1.480;2023-03-01T00:52:53;13.80;;;7.50;;
14923;SDS011;7554;43.600;1.480;2023-03-01T00:55:20;12.20;;;7.23;;
14923;SDS011;7554;43.600;1.480;2023-03-01T00:57:49;9.33;;;6.27;;
14923;SDS011;7554;43.600;1.480;2023-03-01T01:00:18;11.13;;;6.20;;
14923;SDS011;7554;43.600;1.480;2023-03-01T01:02:46;10.40;;;5.63;;
14923;SDS011;7554;43.600;1.480;2023-03-01T01:05:13;9.53;;;5.90;;
14923;SDS011;7554;43.600;1.480;2023-03-01T01:07:46;8.00;;;5.53;;
14923;SDS011;7554;43.600;1.480;2023-03-01T01:10:14;8.70;;;5.63;;
14923;SDS011;7554;43.600;1.480;2023-03-01T01:12:43;11.30;;;6.03;;
14923;SDS011;7554;43.600;1.480;2023-03-01T01:15:12;8.57;;;6.03;;
14923;SDS011;7554;43.600;1.480;2023-03-01T01:17:41;7.53;;;5.60;;
14923;SDS011;7554;43.600;1.480;2023-03-01T01:20:09;8.77;;;5.53;;
14923;SDS011;7554;43.600;1.480;2023-03-01T01:22:37;8.90;;;5.77;;
14923;SDS011;7554;43.600;1.480;2023-03-01T01:25:05;7.13;;;5.10;;
14923;SDS011;7554;43.600;1.480;2023-03-01T01:27:33;9.20;;;5.90;;
14923;SDS011;7554;43.600;1.480;2023-03-01T01:30:00;8.00;;;5.40;;
14923;SDS011;7554;43.600;1.480;2023-03-01T01:32:30;9.97;;;5.70;;
14923;SDS011;7554;43.600;1.480;2023-03-01T01:34:58;11.20;;;5.83;;
14923;SDS011;7554;43.600;1.480;2023-03-01T01:37:25;9.30;;;5.90;;
14923;SDS011;7554;43.600;1.480;2023-03-01T01:39:56;9.80;;;6.17;;
14923;SDS011;7554;43.600;1.480;2023-03-01T01:42:25;8.30;;;5.93;;
14923;SDS011;7554;43.600;1.480;2023-03-01T01:47:57;10.27;;;6.00;;
14923;SDS011;7554;43.600;1.480;2023-03-01T01:50:27;11.63;;;5.70;;
14923;SDS011;7554;43.600;1.480;2023-03-01T01:53:04;8.40;;;5.73;;
14923;SDS011;7554;43.600;1.480;2023-03-01T01:55:35;11.43;;;5.20;;
14923;SDS011;7554;43.600;1.480;2023-03-01T01:58:06;9.00;;;5.53;;
14923;SDS011;7554;43.600;1.480;2023-03-01T02:00:36;9.30;;;5.23;;
14923;SDS011;7554;43.600;1.480;2023-03-01T02:03:07;9.93;;;6.00;;
14923;SDS011;7554;43.600;1.480;2023-03-01T02:05:39;10.93;;;5.43;;
14923;SDS011;7554;43.600;1.480;2023-03-01T02:08:10;9.77;;;6.63;;
14923;SDS011;7554;43.600;1.480;2023-03-01T02:10:39;11.33;;;6.73;;
14923;SDS011;7554;43.600;1.480;2023-03-01T02:13:08;15.03;;;9.40;;
14923;SDS011;7554;43.600;1.480;2023-03-01T02:15:36;17.33;;;9.07;;
14923;SDS011;7554;43.600;1.480;2023-03-01T02:18:07;17.27;;;9.17;;
14923;SDS011;7554;43.600;1.480;2023-03-01T02:20:37;14.60;;;9.13;;
14923;SDS011;7554;43.600;1.480;2023-03-01T02:23:12;16.37;;;8.60;;
14923;SDS011;7554;43.600;1.480;2023-03-01T02:25:44;15.47;;;8.60;;
14923;SDS011;7554;43.600;1.480;2023-03-01T02:28:26;12.17;;;7.37;;
14923;SDS011;7554;43.600;1.480;2023-03-01T02:30:57;12.30;;;8.00;;
14923;SDS011;7554;43.600;1.480;2023-03-01T02:33:41;13.47;;;7.90;;
14923;SDS011;7554;43.600;1.480;2023-03-01T02:36:11;10.53;;;6.70;;
14923;SDS011;7554;43.600;1.480;2023-03-01T02:38:42;10.83;;;5.60;;
14923;SDS011;7554;43.600;1.480;2023-03-01T02:41:10;9.77;;;6.30;;
14923;SDS011;7554;43.600;1.480;2023-03-01T02:43:42;10.00;;;5.73;;
14923;SDS011;7554;43.600;1.480;2023-03-01T02:46:14;10.20;;;6.00;;
14923;SDS011;7554;43.600;1.480;2023-03-01T02:48:44;9.27;;;6.13;;
14923;SDS011;7554;43.600;1.480;2023-03-01T02:51:25;9.13;;;5.80;;
14923;SDS011;7554;43.600;1.480;2023-03-01T02:54:15;9.27;;;5.53;;
14923;SDS011;7554;43.600;1.480;2023-03-01T02:56:47;11.63;;;6.03;;
14923;SDS011;7554;43.600;1.480;2023-03-01T02:59:16;10.60;;;5.73;;
14923;SDS011;7554;43.600;1.480;2023-03-01T03:01:47;9.03;;;5.47;;
14923;SDS011;7554;43.600;1.480;2023-03-01T03:04:15;8.87;;;6.43;;
14923;SDS011;7554;43.600;1.480;2023-03-01T03:06:44;8.67;;;5.33;;
14923;SDS011;7554;43.600;1.480;2023-03-01T03:09:12;9.30;;;5.80;;
14923;SDS011;7554;43.600;1.480;2023-03-01T03:11:40;10.07;;;6.17;;
14923;SDS011;7554;43.600;1.480;2023-03-01T03:14:08;10.97;;;6.50;;
14923;SDS011;7554;43.600;1.480;2023-03-01T03:16:40;10.23;;;7.17;;
14923;SDS011;7554;43.600;1.480;2023-03-01T03:19:08;13.00;;;6.93;;
14923;SDS011;7554;43.600;1.480;2023-03-01T03:21:36;10.03;;;6.70;;
14923;SDS011;7554;43.600;1.480;2023-03-01T03:24:04;13.57;;;8.27;;
14923;SDS011;7554;43.600;1.480;2023-03-01T03:26:32;18.70;;;9.03;;
14923;SDS011;7554;43.600;1.480;2023-03-01T03:28:59;14.03;;;9.20;;
14923;SDS011;7554;43.600;1.480;2023-03-01T03:31:27;14.40;;;8.53;;
14923;SDS011;7554;43.600;1.480;2023-03-01T03:33:56;10.93;;;7.43;;
14923;SDS011;7554;43.600;1.480;2023-03-01T03:36:24;14.23;;;9.10;;
14923;SDS011;7554;43.600;1.480;2023-03-01T03:38:52;16.47;;;9.60;;
14923;SDS011;7554;43.600;1.480;2023-03-01T03:41:19;13.63;;;8.67;;
14923;SDS011;7554;43.600;1.480;2023-03-01T03:43:46;21.73;;;11.07;;
14923;SDS011;7554;43.600;1.480;2023-03-01T03:46:14;25.37;;;14.33;;
14923;SDS011;7554;43.600;1.480;2023-03-01T03:48:42;27.30;;;13.77;;
14923;SDS011;7554;43.600;1.480;2023-03-01T03:51:12;23.97;;;13.83;;
14923;SDS011;7554;43.600;1.480;2023-03-01T03:53:41;20.33;;;12.27;;
14923;SDS011;7554;43.600;1.480;2023-03-01T03:56:09;20.30;;;11.97;;
14923;SDS011;7554;43.600;1.480;2023-03-01T03:58:37;23.30;;;12.87;;
14923;SDS011;7554;43.600;1.480;2023-03-01T04:01:04;19.77;;;11.60;;
14923;SDS011;7554;43.600;1.480;2023-03-01T04:03:32;19.33;;;10.80;;
14923;SDS011;7554;43.600;1.480;2023-03-01T04:06:01;20.87;;;11.67;;
14923;SDS011;7554;43.600;1.480;2023-03-01T04:08:30;17.43;;;10.60;;
14923;SDS011;7554;43.600;1.480;2023-03-01T04:10:58;18.83;;;11.63;;
14923;SDS011;7554;43.600;1.480;2023-03-01T04:13:48;16.27;;;10.93;;
14923;SDS011;7554;43.600;1.480;2023-03-01T04:16:16;17.83;;;10.20;;
14923;SDS011;7554;43.600;1.480;2023-03-01T04:18:44;15.33;;;9.60;;
14923;SDS011;7554;43.600;1.480;2023-03-01T04:21:12;18.03;;;10.83;;
14923;SDS011;7554;43.600;1.480;2023-03-01T04:23:41;18.60;;;10.30;;
14923;SDS011;7554;43.600;1.480;2023-03-01T04:26:09;14.13;;;9.43;;
14923;SDS011;7554;43.600;1.480;2023-03-01T04:28:37;17.57;;;10.10;;
14923;SDS011;7554;43.600;1.480;2023-03-01T04:31:06;14.07;;;8.93;;
14923;SDS011;7554;43.600;1.480;2023-03-01T04:33:39;18.13;;;9.80;;
14923;SDS011;7554;43.600;1.480;2023-03-01T04:36:08;17.03;;;10.50;;
14923;SDS011;7554;43.600;1.480;2023-03-01T04:38:36;16.23;;;9.77;;
14923;SDS011;7554;43.600;1.480;2023-03-01T04:41:05;15.57;;;9.07;;
14923;SDS011;7554;43.600;1.480;2023-03-01T04:43:34;15.03;;;9.33;;
14923;SDS011;7554;43.600;1.480;2023-03-01T04:46:02;16.10;;;9.60;;
14923;SDS011;7554;43.600;1.480;2023-03-01T04:48:34;16.33;;;10.33;;
14923;SDS011;7554;43.600;1.480;2023-03-01T04:51:02;16.43;;;10.27;;
14923;SDS011;7554;43.600;1.480;2023-03-01T04:53:29;16.77;;;10.53;;
14923;SDS011;7554;43.600;1.480;2023-03-01T04:55:58;17.87;;;9.60;;
14923;SDS011;7554;43.600;1.480;2023-03-01T04:58:27;19.73;;;10.13;;
14923;SDS011;7554;43.600;1.480;2023-03-01T05:00:55;14.27;;;8.90;;
14923;SDS011;7554;43.600;1.480;2023-03-01T05:03:22;19.53;;;10.20;;
14923;SDS011;7554;43.600;1.480;2023-03-01T05:05:51;17.60;;;9.47;;
14923;SDS011;7554;43.600;1.480;2023-03-01T05:08:19;17.17;;;10.10;;
14923;SDS011;7554;43.600;1.480;2023-03-01T05:10:48;15.30;;;9.53;;
14923;SDS011;7554;43.600;1.480;2023-03-01T05:13:17;15.40;;;10.07;;
14923;SDS011;7554;43.600;1.480;2023-03-01T05:15:49;16.73;;;9.43;;
14923;SDS011;7554;43.600;1.480;2023-03-01T05:18:21;19.20;;;10.80;;
14923;SDS011;7554;43.600;1.480;2023-03-01T05:20:51;16.33;;;9.90;;
14923;SDS011;7554;43.600;1.480;2023-03-01T05:23:23;15.70;;;9.90;;
14923;SDS011;7554;43.600;1.480;2023-03-01T05:25:50;15.53;;;9.97;;
14923;SDS011;7554;43.600;1.480;2023-03-01T05:28:19;18.30;;;10.33;;
14923;SDS011;7554;43.600;1.480;2023-03-01T05:30:46;17.27;;;11.30;;
14923;SDS011;7554;43.600;1.480;2023-03-01T05:33:16;16.73;;;10.30;;
14923;SDS011;7554;43.600;1.480;2023-03-01T05:35:44;16.03;;;9.90;;
14923;SDS011;7554;43.600;1.480;2023-03-01T05:38:14;16.33;;;9.90;;
14923;SDS011;7554;43.600;1.480;2023-03-01T05:40:42;16.80;;;9.57;;
14923;SDS011;7554;43.600;1.480;2023-03-01T05:43:11;14.10;;;8.00;;
14923;SDS011;7554;43.600;1.480;2023-03-01T05:45:39;15.17;;;8.53;;
14923;SDS011;7554;43.600;1.480;2023-03-01T05:48:09;14.17;;;8.80;;
14923;SDS011;7554;43.600;1.480;2023-03-01T05:50:39;11.03;;;7.57;;
14923;SDS011;7554;43.600;1.480;2023-03-01T05:53:09;14.33;;;9.30;;
14923;SDS011;7554;43.600;1.480;2023-03-01T05:55:37;15.50;;;9.43;;
14923;SDS011;7554;43.600;1.480;2023-03-01T05:58:06;18.93;;;9.53;;
14923;SDS011;7554;43.600;1.480;2023-03-01T06:00:36;17.47;;;9.27;;
14923;SDS011;7554;43.600;1.480;2023-03-01T06:03:03;16.87;;;9.77;;
14923;SDS011;7554;43.600;1.480;2023-03-01T06:05:32;16.37;;;9.00;;
14923;SDS011;7554;43.600;1.480;2023-03-01T06:08:00;15.17;;;9.30;;
14923;SDS011;7554;43.600;1.480;2023-03-01T06:10:28;17.47;;;10.23;;
14923;SDS011;7554;43.600;1.480;2023-03-01T06:12:56;16.83;;;10.17;;
14923;SDS011;7554;43.600;1.480;2023-03-01T06:15:23;17.53;;;10.23;;
14923;SDS011;7554;43.600;1.480;2023-03-01T06:17:53;18.37;;;10.47;;
14923;SDS011;7554;43.600;1.480;2023-03-01T06:20:22;17.73;;;11.10;;
14923;SDS011;7554;43.600;1.480;2023-03-01T06:22:52;19.83;;;10.60;;
14923;SDS011;7554;43.600;1.480;2023-03-01T06:25:20;15.20;;;9.90;;
14923;SDS011;7554;43.600;1.480;2023-03-01T06:27:50;16.80;;;9.83;;
14923;SDS011;7554;43.600;1.480;2023-03-01T06:30:19;14.47;;;9.83;;
14923;SDS011;7554;43.600;1.480;2023-03-01T06:32:47;17.97;;;10.63;;
14923;SDS011;7554;43.600;1.480;2023-03-01T06:35:15;20.13;;;10.63;;
14923;SDS011;7554;43.600;1.480;2023-03-01T06:37:44;16.10;;;10.03;;
14923;SDS011;7554;43.600;1.480;2023-03-01T06:40:13;18.30;;;10.90;;
14923;SDS011;7554;43.600;1.480;2023-03-01T06:42:42;19.93;;;9.93;;
14923;SDS011;7554;43.600;1.480;2023-03-01T06:45:13;17.93;;;10.83;;
14923;SDS011;7554;43.600;1.480;2023-03-01T06:47:41;18.33;;;11.97;;
14923;SDS011;7554;43.600;1.480;2023-03-01T06:50:09;18.80;;;10.90;;
14923;SDS011;7554;43.600;1.480;2023-03-01T06:52:37;17.47;;;10.50;;
14923;SDS011;7554;43.600;1.480;2023-03-01T06:55:05;18.23;;;11.43;;
14923;SDS011;7554;43.600;1.480;2023-03-01T06:57:34;16.37;;;10.90;;
14923;SDS011;7554;43.600;1.480;2023-03-01T07:00:02;17.57;;;9.87;;
14923;SDS011;7554;43.600;1.480;2023-03-01T07:02:31;17.93;;;10.63;;
14923;SDS011;7554;43.600;1.480;2023-03-01T07:04:58;16.40;;;10.27;;
14923;SDS011;7554;43.600;1.480;2023-03-01T07:07:25;20.30;;;11.23;;
14923;SDS011;7554;43.600;1.480;2023-03-01T07:09:53;15.53;;;10.53;;
14923;SDS011;7554;43.600;1.480;2023-03-01T07:12:20;15.57;;;10.03;;
14923;SDS011;7554;43.600;1.480;2023-03-01T07:14:49;21.43;;;12.60;;
14923;SDS011;7554;43.600;1.480;2023-03-01T07:17:16;16.77;;;9.97;;
14923;SDS011;7554;43.600;1.480;2023-03-01T07:19:44;17.27;;;10.67;;
14923;SDS011;7554;43.600;1.480;2023-03-01T07:22:12;15.10;;;10.23;;
14923;SDS011;7554;43.600;1.480;2023-03-01T07:24:40;17.00;;;11.17;;
14923;SDS011;7554;43.600;1.480;2023-03-01T07:27:07;20.50;;;11.43;;
14923;SDS011;7554;43.600;1.480;2023-03-01T07:29:35;21.57;;;11.70;;
14923;SDS011;7554;43.600;1.480;2023-03-01T07:32:05;19.60;;;12.23;;
14923;SDS011;7554;43.600;1.480;2023-03-01T07:34:33;18.87;;;11.77;;
14923;SDS011;7554;43.600;1.480;2023-03-01T07:37:00;17.70;;;11.07;;
14923;SDS011;7554;43.600;1.480;2023-03-01T07:39:27;20.13;;;12.37;;
14923;SDS011;7554;43.600;1.480;2023-03-01T07:41:55;18.33;;;10.67;;
14923;SDS011;7554;43.600;1.480;2023-03-01T07:44:22;17.77;;;10.30;;
14923;SDS011;7554;43.600;1.480;2023-03-01T07:46:50;16.77;;;10.33;;
14923;SDS011;7554;43.600;1.480;2023-03-01T07:49:22;16.93;;;10.17;;
14923;SDS011;7554;43.600;1.480;2023-03-01T07:51:51;18.07;;;10.30;;
14923;SDS011;7554;43.600;1.480;2023-03-01T07:54:18;15.13;;;10.10;;
14923;SDS011;7554;43.600;1.480;2023-03-01T07:56:46;15.63;;;9.93;;
14923;SDS011;7554;43.600;1.480;2023-03-01T07:59:13;14.87;;;9.87;;
14923;SDS011;7554;43.600;1.480;2023-03-01T08:01:41;15.97;;;10.10;;
14923;SDS011;7554;43.600;1.480;2023-03-01T08:04:08;15.87;;;10.60;;
14923;SDS011;7554;43.600;1.480;2023-03-01T08:06:37;17.57;;;10.67;;
14923;SDS011;7554;43.600;1.480;2023-03-01T08:09:04;15.80;;;10.67;;
14923;SDS011;7554;43.600;1.480;2023-03-01T08:11:33;19.53;;;10.10;;
14923;SDS011;7554;43.600;1.480;2023-03-01T08:14:03;16.33;;;9.63;;
14923;SDS011;7554;43.600;1.480;2023-03-01T08:16:30;17.53;;;9.87;;
14923;SDS011;7554;43.600;1.480;2023-03-01T08:19:02;16.90;;;9.97;;
14923;SDS011;7554;43.600;1.480;2023-03-01T08:21:31;20.73;;;11.00;;
14923;SDS011;7554;43.600;1.480;2023-03-01T08:24:01;16.37;;;9.53;;
14923;SDS011;7554;43.600;1.480;2023-03-01T08:26:29;17.03;;;9.57;;
14923;SDS011;7554;43.600;1.480;2023-03-01T08:28:56;11.47;;;8.37;;
14923;SDS011;7554;43.600;1.480;2023-03-01T08:31:24;12.60;;;7.70;;
14923;SDS011;7554;43.600;1.480;2023-03-01T08:33:53;14.37;;;8.60;;
14923;SDS011;7554;43.600;1.480;2023-03-01T08:36:23;15.00;;;8.73;;
14923;SDS011;7554;43.600;1.480;2023-03-01T08:38:51;14.37;;;8.57;;
14923;SDS011;7554;43.600;1.480;2023-03-01T08:41:20;17.93;;;10.37;;
14923;SDS011;7554;43.600;1.480;2023-03-01T08:43:48;16.10;;;8.70;;
14923;SDS011;7554;43.600;1.480;2023-03-01T08:46:16;14.33;;;7.93;;
14923;SDS011;7554;43.600;1.480;2023-03-01T08:48:44;12.73;;;8.13;;
14923;SDS011;7554;43.600;1.480;2023-03-01T08:51:12;13.30;;;7.70;;
14923;SDS011;7554;43.600;1.480;2023-03-01T08:53:41;19.43;;;7.60;;
14923;SDS011;7554;43.600;1.480;2023-03-01T08:56:10;11.33;;;8.13;;
14923;SDS011;7554;43.600;1.480;2023-03-01T08:58:42;10.03;;;7.77;;
14923;SDS011;7554;43.600;1.480;2023-03-01T09:01:11;17.53;;;8.23;;
14923;SDS011;7554;43.600;1.480;2023-03-01T09:03:40;12.93;;;8.33;;
14923;SDS011;7554;43.600;1.480;2023-03-01T09:06:08;9.90;;;7.23;;
14923;SDS011;7554;43.600;1.480;2023-03-01T09:08:36;11.23;;;7.00;;
14923;SDS011;7554;43.600;1.480;2023-03-01T09:11:04;11.63;;;7.60;;
14923;SDS011;7554;43.600;1.480;2023-03-01T09:13:33;10.03;;;7.50;;
14923;SDS011;7554;43.600;1.480;2023-03-01T09:16:04;12.97;;;7.70;;
14923;SDS011;7554;43.600;1.480;2023-03-01T09:18:33;10.50;;;7.07;;
14923;SDS011;7554;43.600;1.480;2023-03-01T09:21:01;9.80;;;6.57;;
14923;SDS011;7554;43.600;1.480;2023-03-01T09:23:32;8.77;;;6.63;;
14923;SDS011;7554;43.600;1.480;2023-03-01T09:26:01;8.47;;;6.37;;
14923;SDS011;7554;43.600;1.480;2023-03-01T09:28:29;8.37;;;6.07;;
14923;SDS011;7554;43.600;1.480;2023-03-01T09:30:57;8.63;;;6.50;;
14923;SDS011;7554;43.600;1.480;2023-03-01T09:33:27;9.83;;;7.03;;
14923;SDS011;7554;43.600;1.480;2023-03-01T09:35:56;9.97;;;7.10;;
14923;SDS011;7554;43.600;1.480;2023-03-01T09:38:23;9.90;;;7.50;;
14923;SDS011;7554;43.600;1.480;2023-03-01T09:40:51;10.47;;;6.70;;
14923;SDS011;7554;43.600;1.480;2023-03-01T09:43:20;9.47;;;6.80;;
14923;SDS011;7554;43.600;1.480;2023-03-01T09:45:50;8.87;;;6.33;;
14923;SDS011;7554;43.600;1.480;2023-03-01T09:48:21;7.73;;;6.27;;
14923;SDS011;7554;43.600;1.480;2023-03-01T09:50:54;7.47;;;6.00;;
14923;SDS011;7554;43.600;1.480;2023-03-01T09:53:22;9.23;;;5.47;;
14923;SDS011;7554;43.600;1.480;2023-03-01T09:55:59;7.87;;;5.73;;
14923;SDS011;7554;43.600;1.480;2023-03-01T09:58:31;6.83;;;5.50;;
14923;SDS011;7554;43.600;1.480;2023-03-01T10:01:09;6.87;;;5.33;;
14923;SDS011;7554;43.600;1.480;2023-03-01T10:03:52;9.47;;;5.77;;
14923;SDS011;7554;43.600;1.480;2023-03-01T10:06:31;9.97;;;5.70;;
14923;SDS011;7554;43.600;1.480;2023-03-01T10:09:00;6.87;;;4.83;;
14923;SDS011;7554;43.600;1.480;2023-03-01T10:11:32;6.13;;;4.73;;
14923;SDS011;7554;43.600;1.480;2023-03-01T10:14:04;8.80;;;5.30;;
14923;SDS011;7554;43.600;1.480;2023-03-01T10:16:39;7.60;;;5.47;;
14923;SDS011;7554;43.600;1.480;2023-03-01T10:19:14;9.57;;;5.20;;
14923;SDS011;7554;43.600;1.480;2023-03-01T10:21:48;6.23;;;5.23;;
14923;SDS011;7554;43.600;1.480;2023-03-01T10:24:18;5.60;;;4.30;;
14923;SDS011;7554;43.600;1.480;2023-03-01T10:26:54;6.43;;;4.67;;
14923;SDS011;7554;43.600;1.480;2023-03-01T10:29:23;8.80;;;4.73;;
14923;SDS011;7554;43.600;1.480;2023-03-01T10:31:56;6.70;;;4.67;;
14923;SDS011;7554;43.600;1.480;2023-03-01T10:34:27;5.83;;;4.57;;
14923;SDS011;7554;43.600;1.480;2023-03-01T10:36:58;9.03;;;4.57;;
14923;SDS011;7554;43.600;1.480;2023-03-01T10:39:28;6.97;;;5.13;;
14923;SDS011;7554;43.600;1.480;2023-03-01T10:41:57;6.87;;;5.03;;
14923;SDS011;7554;43.600;1.480;2023-03-01T10:44:39;7.27;;;4.60;;
14923;SDS011;7554;43.600;1.480;2023-03-01T10:47:18;8.40;;;4.63;;
14923;SDS011;7554;43.600;1.480;2023-03-01T10:49:52;7.20;;;4.77;;
14923;SDS011;7554;43.600;1.480;2023-03-01T10:52:29;5.63;;;4.70;;
14923;SDS011;7554;43.600;1.480;2023-03-01T10:54:59;8.67;;;4.60;;
14923;SDS011;7554;43.600;1.480;2023-03-01T10:57:36;7.33;;;4.90;;
14923;SDS011;7554;43.600;1.480;2023-03-01T11:00:19;5.83;;;4.63;;
14923;SDS011;7554;43.600;1.480;2023-03-01T11:03:01;6.50;;;4.37;;
14923;SDS011;7554;43.600;1.480;2023-03-01T11:05:36;7.20;;;5.60;;
14923;SDS011;7554;43.600;1.480;2023-03-01T11:08:05;7.30;;;5.53;;
14923;SDS011;7554;43.600;1.480;2023-03-01T11:10:33;6.53;;;5.00;;
14923;SDS011;7554;43.600;1.480;2023-03-01T11:13:06;6.97;;;5.30;;
14923;SDS011;7554;43.600;1.480;2023-03-01T11:15:35;7.00;;;5.27;;
14923;SDS011;7554;43.600;1.480;2023-03-01T11:18:03;5.80;;;4.57;;
14923;SDS011;7554;43.600;1.480;2023-03-01T11:20:32;7.87;;;5.53;;
14923;SDS011;7554;43.600;1.480;2023-03-01T11:23:03;10.10;;;4.90;;
14923;SDS011;7554;43.600;1.480;2023-03-01T11:25:37;6.00;;;4.40;;
14923;SDS011;7554;43.600;1.480;2023-03-01T11:28:10;6.17;;;5.03;;
14923;SDS011;7554;43.600;1.480;2023-03-01T11:30:41;9.13;;;5.50;;
14923;SDS011;7554;43.600;1.480;2023-03-01T11:33:17;7.00;;;5.20;;
14923;SDS011;7554;43.600;1.480;2023-03-01T11:35:57;5.77;;;5.00;;
14923;SDS011;7554;43.600;1.480;2023-03-01T11:38:32;6.57;;;4.97;;
14923;SDS011;7554;43.600;1.480;2023-03-01T11:41:04;6.70;;;4.90;;
14923;SDS011;7554;43.600;1.480;2023-03-01T11:43:35;5.63;;;4.77;;
14923;SDS011;7554;43.600;1.480;2023-03-01T11:49:35;7.73;;;5.37;;
14923;SDS011;7554;43.600;1.480;2023-03-01T11:52:24;7.70;;;5.37;;
14923;SDS011;7554;43.600;1.480;2023-03-01T11:55:07;7.27;;;5.17;;
14923;SDS011;7554;43.600;1.480;2023-03-01T11:57:49;7.27;;;5.13;;
14923;SDS011;7554;43.600;1.480;2023-03-01T12:00:36;8.10;;;4.80;;
14923;SDS011;7554;43.600;1.480;2023-03-01T12:03:21;6.47;;;4.60;;
14923;SDS011;7554;43.600;1.480;2023-03-01T12:08:49;6.07;;;4.17;;
14923;SDS011;7554;43.600;1.480;2023-03-01T12:11:29;7.20;;;4.30;;
14923;SDS011;7554;43.600;1.480;2023-03-01T12:14:18;5.07;;;4.13;;
14923;SDS011;7554;43.600;1.480;2023-03-01T12:17:03;5.63;;;3.93;;
14923;SDS011;7554;43.600;1.480;2023-03-01T12:19:48;6.13;;;4.17;;
14923;SDS011;7554;43.600;1.480;2023-03-01T12:22:31;5.23;;;3.70;;
14923;SDS011;7554;43.600;1.480;2023-03-01T12:25:10;5.43;;;3.90;;
14923;SDS011;7554;43.600;1.480;2023-03-01T12:27:54;6.20;;;4.00;;
14923;SDS011;7554;43.600;1.480;2023-03-01T12:30:39;7.03;;;4.03;;
14923;SDS011;7554;43.600;1.480;2023-03-01T12:33:18;5.33;;;3.83;;
14923;SDS011;7554;43.600;1.480;2023-03-01T12:38:45;5.20;;;3.93;;
14923;SDS011;7554;43.600;1.480;2023-03-01T12:41:28;4.87;;;4.30;;
14923;SDS011;7554;43.600;1.480;2023-03-01T12:44:12;5.10;;;4.10;;
14923;SDS011;7554;43.600;1.480;2023-03-01T12:46:53;5.60;;;4.10;;
14923;SDS011;7554;43.600;1.480;2023-03-01T12:49:38;4.17;;;3.67;;
14923;SDS011;7554;43.600;1.480;2023-03-01T12:52:10;5.77;;;3.80;;
14923;SDS011;7554;43.600;1.480;2023-03-01T12:54:42;5.33;;;4.37;;
14923;SDS011;7554;43.600;1.480;2023-03-01T12:57:12;5.47;;;4.23;;
14923;SDS011;7554;43.600;1.480;2023-03-01T12:59:48;5.07;;;4.30;;
14923;SDS011;7554;43.600;1.480;2023-03-01T13:02:33;5.50;;;4.03;;
14923;SDS011;7554;43.600;1.480;2023-03-01T13:08:05;5.33;;;4.10;;
14923;SDS011;7554;43.600;1.480;2023-03-01T13:10:42;5.90;;;3.90;;
14923;SDS011;7554;43.600;1.480;2023-03-01T13:13:18;6.53;;;4.20;;
14923;SDS011;7554;43.600;1.480;2023-03-01T13:15:48;6.57;;;4.13;;
14923;SDS011;7554;43.600;1.480;2023-03-01T13:18:33;6.00;;;3.70;;
14923;SDS011;7554;43.600;1.480;2023-03-01T13:21:03;5.73;;;4.57;;
14923;SDS011;7554;43.600;1.480;2023-03-01T13:23:36;5.40;;;4.13;;
14923;SDS011;7554;43.600;1.480;2023-03-01T13:26:06;5.17;;;4.30;;
14923;SDS011;7554;43.600;1.480;2023-03-01T13:34:41;6.03;;;4.10;;
14923;SDS011;7554;43.600;1.480;2023-03-01T13:37:18;4.27;;;3.53;;
14923;SDS011;7554;43.600;1.480;2023-03-01T13:39:55;6.93;;;4.17;;
14923;SDS011;7554;43.600;1.480;2023-03-01T13:42:40;4.07;;;3.60;;
14923;SDS011;7554;43.600;1.480;2023-03-01T13:48:08;8.60;;;4.60;;
14923;SDS011;7554;43.600;1.480;2023-03-01T13:50:45;8.43;;;4.30;;
14923;SDS011;7554;43.600;1.480;2023-03-01T13:53:15;5.13;;;3.90;;
14923;SDS011;7554;43.600;1.480;2023-03-01T13:55:46;4.27;;;3.53;;
14923;SDS011;7554;43.600;1.480;2023-03-01T13:58:18;5.53;;;4.10;;
14923;SDS011;7554;43.600;1.480;2023-03-01T14:00:55;5.57;;;4.33;;
14923;SDS011;7554;43.600;1.480;2023-03-01T14:03:24;4.73;;;3.77;;
14923;SDS011;7554;43.600;1.480;2023-03-01T14:06:04;4.73;;;3.83;;
14923;SDS011;7554;43.600;1.480;2023-03-01T14:08:33;6.10;;;3.93;;
14923;SDS011;7554;43.600;1.480;2023-03-01T14:11:17;4.80;;;3.97;;
14923;SDS011;7554;43.600;1.480;2023-03-01T14:14:16;5.73;;;4.13;;
14923;SDS011;7554;43.600;1.480;2023-03-01T14:17:00;5.53;;;4.50;;
14923;SDS011;7554;43.600;1.480;2023-03-01T14:19:46;6.30;;;3.93;;
14923;SDS011;7554;43.600;1.480;2023-03-01T14:22:21;6.27;;;4.60;;
14923;SDS011;7554;43.600;1.480;2023-03-01T14:24:54;5.97;;;4.37;;
14923;SDS011;7554;43.600;1.480;2023-03-01T14:27:26;5.53;;;4.23;;
14923;SDS011;7554;43.600;1.480;2023-03-01T14:29:59;6.57;;;4.37;;
14923;SDS011;7554;43.600;1.480;2023-03-01T14:32:30;5.40;;;4.13;;
14923;SDS011;7554;43.600;1.480;2023-03-01T14:34:59;5.37;;;4.50;;
14923;SDS011;7554;43.600;1.480;2023-03-01T14:37:34;5.80;;;4.40;;
14923;SDS011;7554;43.600;1.480;2023-03-01T14:40:18;6.20;;;4.70;;
14923;SDS011;7554;43.600;1.480;2023-03-01T14:42:49;6.73;;;4.77;;
14923;SDS011;7554;43.600;1.480;2023-03-01T14:45:19;6.27;;;4.80;;
14923;SDS011;7554;43.600;1.480;2023-03-01T14:47:47;7.03;;;4.47;;
14923;SDS011;7554;43.600;1.480;2023-03-01T14:50:18;5.57;;;4.30;;
14923;SDS011;7554;43.600;1.480;2023-03-01T14:52:52;6.00;;;4.60;;
14923;SDS011;7554;43.600;1.480;2023-03-01T14:55:28;7.23;;;4.73;;
14923;SDS011;7554;43.600;1.480;2023-03-01T14:58:02;5.90;;;4.60;;
14923;SDS011;7554;43.600;1.480;2023-03-01T15:00:32;5.00;;;3.97;;
14923;SDS011;7554;43.600;1.480;2023-03-01T15:03:06;5.90;;;4.53;;
14923;SDS011;7554;43.600;1.480;2023-03-01T15:05:46;8.50;;;4.47;;
14923;SDS011;7554;43.600;1.480;2023-03-01T15:08:20;5.63;;;4.20;;
14923;SDS011;7554;43.600;1.480;2023-03-01T15:10:58;4.73;;;4.10;;
14923;SDS011;7554;43.600;1.480;2023-03-01T15:13:31;6.93;;;3.90;;
14923;SDS011;7554;43.600;1.480;2023-03-01T15:16:03;4.60;;;3.97;;
14923;SDS011;7554;43.600;1.480;2023-03-01T15:18:42;4.87;;;4.37;;
14923;SDS011;7554;43.600;1.480;2023-03-01T15:21:21;5.30;;;4.37;;
14923;SDS011;7554;43.600;1.480;2023-03-01T15:23:55;6.20;;;3.90;;
14923;SDS011;7554;43.600;1.480;2023-03-01T15:26:28;5.77;;;4.40;;
14923;SDS011;7554;43.600;1.480;2023-03-01T15:28:58;5.77;;;4.07;;
14923;SDS011;7554;43.600;1.480;2023-03-01T15:31:27;5.50;;;3.53;;
14923;SDS011;7554;43.600;1.480;2023-03-01T15:34:09;4.63;;;3.87;;
14923;SDS011;7554;43.600;1.480;2023-03-01T15:36:47;7.97;;;4.13;;
14923;SDS011;7554;43.600;1.480;2023-03-01T15:45:08;4.37;;;3.90;;